createdAt,value
2019-05-13T00:00:44.804Z,95313.89
2019-05-13T00:03:14.414Z,95315.95
2019-05-13T00:05:44.509Z,95318.00
2019-05-13T00:08:14.243Z,95316.02
2019-05-13T00:10:46.751Z,95312.19
2019-05-13T00:13:16.097Z,95317.45
2019-05-13T00:15:45.421Z,95319.08
2019-05-13T00:18:14.737Z,95316.64
2019-05-13T00:20:44.518Z,95318.95
2019-05-13T00:23:14.453Z,95324.94
2019-05-13T00:25:44.542Z,95321.27
2019-05-13T00:28:14.637Z,95321.89
2019-05-13T00:30:44.737Z,95309.98
2019-05-13T00:33:14.260Z,95308.69
2019-05-13T00:35:44.231Z,95261.84
2019-05-13T00:38:14.265Z,95323.98
2019-05-13T00:40:44.515Z,95312.23
2019-05-13T00:43:14.406Z,95309.28
2019-05-13T00:45:44.555Z,95323.26
2019-05-13T00:48:14.475Z,95311.78
2019-05-13T00:50:44.393Z,95310.43
2019-05-13T00:53:13.839Z,95307.72
2019-05-13T00:55:44.418Z,95313.14
2019-05-13T00:58:14.323Z,95313.32
2019-05-13T01:00:44.652Z,95316.28
2019-05-13T01:03:14.598Z,95322.20
2019-05-13T01:05:44.659Z,95320.25
2019-05-13T01:08:14.714Z,95319.92
2019-05-13T01:10:45.102Z,95312.06
2019-05-13T01:13:14.952Z,95310.43
2019-05-13T01:15:44.571Z,95316.28
2019-05-13T01:18:14.438Z,95318.63
2019-05-13T01:20:44.068Z,95320.78
2019-05-13T01:23:14.190Z,95320.47
2019-05-13T01:25:44.637Z,95323.13
2019-05-13T01:28:14.134Z,95322.69
2019-05-13T01:30:44.126Z,95323.69
2019-05-13T01:33:14.526Z,95323.58
2019-05-13T01:35:44.553Z,95320.80
2019-05-13T01:38:14.242Z,95324.73
2019-05-13T01:40:44.109Z,95317.21
2019-05-13T01:43:14.342Z,95317.46
2019-05-13T01:45:44.398Z,95312.86
2019-05-13T01:48:14.318Z,95316.69
2019-05-13T01:50:44.650Z,95317.06
2019-05-13T01:53:14.688Z,95316.14
2019-05-13T01:55:44.495Z,95322.06
2019-05-13T01:58:14.746Z,95318.14
2019-05-13T02:00:44.700Z,95327.48
2019-05-13T02:03:14.710Z,95270.77
2019-05-13T02:05:44.504Z,95317.44
2019-05-13T02:08:14.527Z,95309.48
2019-05-13T02:10:54.968Z,95319.75
2019-05-13T02:13:25.030Z,95316.09
2019-05-13T02:15:56.004Z,95318.52
2019-05-13T02:18:25.378Z,95322.35
2019-05-13T02:20:55.786Z,95320.33
2019-05-13T02:23:25.402Z,95314.47
2019-05-13T02:25:54.842Z,95318.96
2019-05-13T02:28:25.027Z,95318.48
2019-05-13T02:30:56.865Z,95323.42
2019-05-13T02:33:25.726Z,95329.21
2019-05-13T02:35:55.117Z,95321.50
2019-05-13T02:38:30.122Z,95336.08
2019-05-13T02:40:55.559Z,95338.55
2019-05-13T02:43:24.865Z,95320.44
2019-05-13T02:45:54.673Z,95329.23
2019-05-13T02:48:24.414Z,95331.45
2019-05-13T02:50:54.621Z,95321.97
2019-05-13T02:53:24.639Z,95331.50
2019-05-13T02:55:54.182Z,95337.73
2019-05-13T02:58:25.181Z,95339.69
2019-05-13T03:00:54.997Z,95344.10
2019-05-13T03:03:24.394Z,95354.00
2019-05-13T03:05:54.135Z,95355.27
2019-05-13T03:08:39.243Z,95366.55
2019-05-13T03:10:54.739Z,95360.38
2019-05-13T03:13:24.411Z,95355.75
2019-05-13T03:16:12.862Z,95366.09
2019-05-13T03:18:43.533Z,95373.30
2019-05-13T03:21:13.089Z,95375.45
2019-05-13T03:23:44.207Z,95370.95
2019-05-13T03:26:13.807Z,95368.88
2019-05-13T03:28:44.023Z,95378.47
2019-05-13T03:31:16.677Z,95374.77
2019-05-13T03:33:47.175Z,95385.38
2019-05-13T03:36:17.748Z,95386.16
2019-05-13T03:39:01.486Z,95378.93
2019-05-13T03:41:22.531Z,95390.14
2019-05-13T03:43:53.372Z,95395.64
2019-05-13T03:46:24.161Z,95388.31
2019-05-13T03:48:54.975Z,95392.92
2019-05-13T03:51:24.555Z,95389.94
2019-05-13T03:53:54.031Z,95393.76
2019-05-13T03:56:24.096Z,95403.91
2019-05-13T03:58:54.134Z,95388.09
2019-05-13T04:01:23.994Z,95394.66
2019-05-13T04:03:53.447Z,95395.42
2019-05-13T04:06:23.648Z,95394.54
2019-05-13T04:08:54.067Z,95393.95
2019-05-13T04:11:24.127Z,95381.87
2019-05-13T04:13:53.688Z,95386.48
2019-05-13T04:16:23.894Z,95388.58
2019-05-13T04:18:53.913Z,95393.83
2019-05-13T04:21:23.647Z,95396.77
2019-05-13T04:23:53.601Z,95391.42
2019-05-13T04:26:23.822Z,95397.16
2019-05-13T04:28:53.660Z,95409.82
2019-05-13T04:31:23.225Z,95401.25
2019-05-13T04:33:53.395Z,95410.36
2019-05-13T04:36:23.849Z,95410.23
2019-05-13T04:38:53.344Z,95405.61
2019-05-13T04:41:23.373Z,95404.10
2019-05-13T04:43:53.899Z,95408.44
2019-05-13T04:46:23.753Z,95405.66
2019-05-13T04:48:53.433Z,95406.47
2019-05-13T04:51:23.069Z,95415.91
2019-05-13T04:53:56.833Z,95404.70
2019-05-13T04:56:24.028Z,95393.92
2019-05-13T04:58:53.374Z,95399.94
2019-05-13T05:01:55.316Z,95400.23
2019-05-13T05:04:34.045Z,95391.82
2019-05-13T05:07:22.238Z,95398.73
2019-05-13T05:10:29.274Z,95393.86
2019-05-13T05:13:24.373Z,95396.54
2019-05-13T05:16:55.423Z,95384.17
2019-05-13T05:19:52.446Z,95390.45
2019-05-13T05:23:15.625Z,95385.02
2019-05-13T05:26:01.245Z,95390.19
2019-05-13T05:28:46.545Z,95385.26
2019-05-13T05:31:53.432Z,95398.05
2019-05-13T05:35:18.789Z,95411.92
2019-05-13T05:38:26.226Z,95401.98
2019-05-13T05:41:01.540Z,95418.42
2019-05-13T05:43:33.763Z,95424.33
2019-05-13T05:46:04.271Z,95447.28
2019-05-13T05:48:35.244Z,95424.67
2019-05-13T05:51:08.013Z,95424.17
2019-05-13T05:53:39.638Z,95411.82
2019-05-13T05:56:11.416Z,95414.44
2019-05-13T05:58:42.976Z,95429.77
2019-05-13T06:01:13.872Z,95432.55
2019-05-13T06:03:45.332Z,95427.09
2019-05-13T06:06:15.661Z,95427.87
2019-05-13T06:08:45.331Z,95419.09
2019-05-13T06:11:14.960Z,95407.64
2019-05-13T06:13:44.308Z,95401.30
2019-05-13T06:16:13.732Z,95407.36
2019-05-13T06:18:43.072Z,95407.47
2019-05-13T06:21:12.486Z,95418.38
2019-05-13T06:23:42.015Z,95430.74
2019-05-13T06:26:12.598Z,95434.34
2019-05-13T06:28:42.084Z,95435.23
2019-05-13T06:31:12.466Z,95431.52
2019-05-13T06:33:42.358Z,95427.01
2019-05-13T06:36:11.713Z,95415.04
2019-05-13T06:38:42.418Z,95213.53
2019-05-13T06:41:14.603Z,95431.53
2019-05-13T06:43:43.000Z,95427.80
2019-05-13T06:46:13.144Z,95425.77
2019-05-13T06:48:42.539Z,95427.16
2019-05-13T06:51:11.847Z,95431.45
2019-05-13T06:53:41.633Z,95447.48
2019-05-13T06:56:12.123Z,95429.53
2019-05-13T06:58:41.779Z,95443.20
2019-05-13T07:01:11.590Z,95443.56
2019-05-13T07:03:42.008Z,95446.61
2019-05-13T07:06:12.333Z,95444.31
2019-05-13T07:08:41.972Z,95467.81
2019-05-13T07:11:18.594Z,95454.02
2019-05-13T07:13:42.441Z,95449.40
2019-05-13T07:16:12.018Z,95474.04
2019-05-13T07:18:41.660Z,95441.16
2019-05-13T07:21:12.510Z,95436.67
2019-05-13T07:23:42.408Z,95456.09
2019-05-13T07:26:12.376Z,95448.00
2019-05-13T07:28:42.843Z,95457.59
2019-05-13T07:31:12.428Z,95462.80
2019-05-13T07:33:42.645Z,95467.91
2019-05-13T07:36:12.840Z,95460.69
2019-05-13T07:38:42.283Z,95466.70
2019-05-13T07:51:28.452Z,95491.98
2019-05-13T07:53:57.788Z,95465.87
2019-05-13T07:56:27.125Z,95459.72
2019-05-13T07:58:56.463Z,95474.64
2019-05-13T08:01:25.844Z,95488.72
2019-05-13T08:03:55.186Z,95460.28
2019-05-13T08:06:24.533Z,95461.77
2019-05-13T08:08:53.870Z,95469.28
2019-05-13T08:11:23.997Z,95464.29
2019-05-13T08:13:53.678Z,95482.98
2019-05-13T08:16:46.923Z,95466.53
2019-05-13T08:19:16.243Z,95498.38
2019-05-13T08:21:45.579Z,95473.39
2019-05-13T08:24:14.970Z,95472.26
2019-05-13T08:26:49.795Z,95487.72
2019-05-13T08:29:15.373Z,95491.30
2019-05-13T08:31:44.739Z,95498.66
2019-05-13T08:34:52.538Z,95479.56
2019-05-13T08:37:21.851Z,95487.92
2019-05-13T08:39:52.197Z,95476.73
2019-05-13T08:42:23.569Z,95486.53
2019-05-13T08:44:53.153Z,95487.17
2019-05-13T08:47:22.594Z,95488.73
2019-05-13T08:49:52.193Z,95494.20
2019-05-13T08:52:22.004Z,95492.09
2019-05-13T08:54:52.413Z,95487.64
2019-05-13T08:57:22.299Z,95473.67
2019-05-13T08:59:51.850Z,95466.31
2019-05-13T09:02:22.151Z,95462.88
2019-05-13T09:04:51.761Z,95446.70
2019-05-13T09:07:24.191Z,95451.43
2019-05-13T09:09:52.752Z,95451.34
2019-05-13T09:12:31.988Z,95446.56
2019-05-13T09:14:53.259Z,95468.03
2019-05-13T09:17:22.658Z,95453.50
2019-05-13T09:19:52.185Z,95452.97
2019-05-13T09:22:21.684Z,95463.84
2019-05-13T09:24:53.080Z,95459.20
2019-05-13T09:27:22.672Z,95467.16
2019-05-13T09:29:52.198Z,95482.25
2019-05-13T09:32:21.767Z,95474.59
2019-05-13T09:34:52.541Z,95459.48
2019-05-13T09:37:22.705Z,95457.02
2019-05-13T09:39:52.243Z,95484.45
2019-05-13T09:42:21.855Z,95440.03
2019-05-13T09:44:52.508Z,95461.20
2019-05-13T09:47:22.253Z,95472.31
2019-05-13T09:49:51.597Z,95480.61
2019-05-13T09:52:22.609Z,95489.38
2019-05-13T09:54:52.456Z,95471.27
2019-05-13T09:57:22.162Z,95460.58
2019-05-13T09:59:52.373Z,95441.78
2019-05-13T10:02:21.964Z,95435.81
2019-05-13T10:04:51.693Z,95437.59
2019-05-13T10:07:22.894Z,95439.22
2019-05-13T10:09:52.327Z,95450.44
2019-05-13T10:12:24.412Z,95438.80
2019-05-13T10:14:54.239Z,95458.23
2019-05-13T10:17:23.567Z,95483.77
2019-05-13T10:19:52.915Z,95492.05
2019-05-13T10:22:22.393Z,95486.67
2019-05-13T10:24:51.742Z,95497.87
2019-05-13T10:27:22.334Z,95496.13
2019-05-13T10:29:52.404Z,95493.59
2019-05-13T10:32:22.139Z,95464.16
2019-05-13T10:34:53.961Z,95474.00
2019-05-13T10:37:23.281Z,95468.31
2019-05-13T10:39:52.726Z,95482.88
2019-05-13T10:42:22.380Z,95482.70
2019-05-13T10:44:52.485Z,95474.55
2019-05-13T10:47:22.778Z,95475.02
2019-05-13T10:49:52.653Z,95477.40
2019-05-13T10:52:22.925Z,95479.32
2019-05-13T10:54:52.848Z,95462.62
2019-05-13T10:57:22.429Z,95470.12
2019-05-13T10:59:52.893Z,95446.88
2019-05-13T11:02:22.405Z,95453.17
2019-05-13T11:04:52.555Z,95453.63
2019-05-13T11:07:22.649Z,95455.02
2019-05-13T11:09:52.836Z,95462.88
2019-05-13T11:12:27.989Z,95457.53
2019-05-13T11:17:30.867Z,95454.25
2019-05-13T11:19:55.744Z,95460.47
2019-05-13T11:22:25.114Z,95465.13
2019-05-13T11:24:54.507Z,95472.70
2019-05-13T11:27:23.946Z,95454.96
2019-05-13T11:29:53.280Z,95458.48
2019-05-13T11:32:22.652Z,95446.94
2019-05-13T11:34:53.100Z,95450.34
2019-05-13T11:37:23.371Z,95456.16
2019-05-13T11:39:52.815Z,95453.54
2019-05-13T11:42:22.852Z,95452.49
2019-05-13T11:44:52.965Z,95458.70
2019-05-13T11:47:22.563Z,95463.96
2019-05-13T11:49:52.476Z,95461.96
2019-05-13T11:52:22.655Z,95468.97
2019-05-13T11:54:53.890Z,95454.58
2019-05-13T11:57:23.340Z,95452.37
2019-05-13T11:59:53.030Z,95452.48
2019-05-13T12:02:23.351Z,95451.05
2019-05-13T12:04:53.765Z,95440.00
2019-05-13T12:07:23.586Z,95449.29
2019-05-13T12:09:53.037Z,95447.91
2019-05-13T12:12:25.050Z,95450.73
2019-05-13T12:15:21.038Z,95448.44
2019-05-13T12:17:24.625Z,95450.24
2019-05-13T12:19:54.458Z,95453.91
2019-05-13T12:22:23.920Z,95450.95
2019-05-13T12:24:53.246Z,95453.52
2019-05-13T12:27:22.800Z,95441.77
2019-05-13T12:29:53.116Z,95438.86
2019-05-13T12:32:22.829Z,95439.20
2019-05-13T12:34:52.855Z,95452.92
2019-05-13T12:37:22.444Z,95436.00
2019-05-13T12:39:53.016Z,95430.13
2019-05-13T12:42:22.993Z,95453.46
2019-05-13T12:45:08.251Z,95430.47
2019-05-13T12:47:23.415Z,95426.06
2019-05-13T12:49:52.750Z,95426.18
2019-05-13T12:52:22.884Z,95431.53
2019-05-13T12:54:53.102Z,95432.89
2019-05-13T12:57:23.320Z,95426.62
2019-05-13T12:59:52.702Z,95427.02
2019-05-13T13:02:22.687Z,95413.52
2019-05-13T13:05:13.040Z,95433.33
2019-05-13T13:07:23.312Z,95417.70
2019-05-13T13:09:53.866Z,95424.30
2019-05-13T13:12:33.749Z,95423.30
2019-05-13T13:14:54.792Z,95416.19
2019-05-13T13:17:24.447Z,95416.06
2019-05-13T13:19:59.815Z,95384.91
2019-05-13T13:22:25.582Z,95378.59
2019-05-13T13:24:57.395Z,95396.78
2019-05-13T13:27:58.994Z,95401.03
2019-05-13T13:30:03.225Z,95390.91
2019-05-13T13:32:28.250Z,95376.55
2019-05-13T13:34:57.583Z,95385.38
2019-05-13T13:37:27.171Z,95387.47
2019-05-13T13:39:56.479Z,95382.41
2019-05-13T13:42:25.870Z,95401.84
2019-05-13T13:44:55.175Z,95416.80
2019-05-13T13:47:24.593Z,95421.25
2019-05-13T13:49:53.942Z,95417.62
2019-05-13T13:52:23.292Z,95388.77
2019-05-13T13:55:02.699Z,95418.11
2019-05-13T13:57:25.548Z,95374.64
2019-05-13T14:00:20.169Z,95407.20
2019-05-13T14:02:25.874Z,95384.42
2019-05-13T14:04:55.889Z,95377.38
2019-05-13T14:06:28.715Z,95459.88
2019-05-13T14:07:34.483Z,95372.84
2019-05-13T14:09:56.348Z,95364.16
2019-05-13T14:12:25.681Z,95390.65
2019-05-13T14:14:55.018Z,95371.83
2019-05-13T14:17:24.364Z,95393.86
2019-05-13T14:19:53.733Z,95368.45
2019-05-13T14:22:23.123Z,95349.23
2019-05-13T14:24:52.603Z,95344.00
2019-05-13T14:27:22.515Z,95370.30
2019-05-13T14:29:52.755Z,95365.14
2019-05-13T14:32:22.536Z,95362.04
2019-05-13T14:34:52.874Z,95379.09
2019-05-13T14:37:22.549Z,95365.56
2019-05-13T14:39:51.886Z,95364.05
2019-05-13T14:42:22.709Z,95356.72
2019-05-13T14:44:52.338Z,95352.72
2019-05-13T14:47:21.896Z,95351.13
2019-05-13T14:49:52.124Z,95336.87
2019-05-13T14:52:22.340Z,95340.39
2019-05-13T14:54:51.826Z,95340.05
2019-05-13T14:57:21.798Z,95339.44
2019-05-13T14:59:51.570Z,95355.63
2019-05-13T15:02:20.893Z,95341.19
2019-05-13T15:04:52.332Z,95327.70
2019-05-13T15:07:21.751Z,95326.19
2019-05-13T15:09:51.598Z,95333.25
2019-05-13T15:12:21.659Z,95329.33
2019-05-13T15:14:52.893Z,95336.45
2019-05-13T15:17:22.236Z,95334.69
2019-05-13T15:19:52.518Z,95332.75
2019-05-13T15:22:22.851Z,95364.63
2019-05-13T15:24:52.230Z,95323.31
2019-05-13T15:27:22.300Z,95328.58
2019-05-13T15:29:51.918Z,95332.28
2019-05-13T15:32:21.887Z,95325.12
2019-05-13T15:34:51.981Z,95309.38
2019-05-13T15:37:21.564Z,95310.55
2019-05-13T15:39:51.864Z,95315.14
2019-05-13T15:42:21.526Z,95313.37
2019-05-13T15:44:53.116Z,95335.16
2019-05-13T15:47:25.788Z,95308.88
2019-05-13T15:49:53.103Z,95327.91
2019-05-13T15:52:23.413Z,95329.84
2019-05-13T15:54:52.740Z,95325.54
2019-05-13T15:57:22.065Z,95325.34
2019-05-13T15:59:51.887Z,95328.27
2019-05-13T16:02:22.626Z,95342.45
2019-05-13T16:05:00.578Z,95336.75
2019-05-13T16:07:23.293Z,95328.58
2019-05-13T16:09:52.825Z,95320.41
2019-05-13T16:12:22.130Z,95317.11
2019-05-13T16:14:51.645Z,95323.55
2019-05-13T16:17:30.613Z,95320.06
2019-05-13T16:19:53.536Z,95320.09
2019-05-13T16:22:23.275Z,95321.52
2019-05-13T16:24:52.739Z,95321.86
2019-05-13T16:27:22.370Z,95341.16
2019-05-13T16:29:51.795Z,95334.34
2019-05-13T16:32:22.697Z,95327.75
2019-05-13T16:34:52.290Z,95317.27
2019-05-13T16:37:22.059Z,95336.69
2019-05-13T16:39:52.185Z,95323.86
2019-05-13T16:42:22.521Z,95324.65
2019-05-13T16:44:52.056Z,95343.87
2019-05-13T16:47:21.428Z,95330.98
2019-05-13T16:49:50.748Z,95344.16
2019-05-13T16:52:22.059Z,95336.75
2019-05-13T16:54:53.186Z,95329.69
2019-05-13T16:57:22.381Z,95325.20
2019-05-13T16:59:51.940Z,95323.80
2019-05-13T17:02:21.491Z,95326.20
2019-05-13T17:04:52.046Z,95330.67
2019-05-13T17:07:21.585Z,95326.80
2019-05-13T17:09:52.200Z,95334.91
2019-05-13T17:12:21.751Z,95340.73
2019-05-13T17:14:52.292Z,95338.17
2019-05-13T17:17:21.805Z,95334.66
2019-05-13T17:19:53.700Z,95329.59
2019-05-13T17:22:22.341Z,95328.16
2019-05-13T17:24:52.156Z,95343.67
2019-05-13T17:27:21.531Z,95333.73
2019-05-13T17:29:51.730Z,95338.53
2019-05-13T17:32:22.184Z,95334.03
2019-05-13T17:34:51.714Z,95340.02
2019-05-13T17:37:23.260Z,95339.38
2019-05-13T17:39:52.611Z,95327.43
2019-05-13T17:42:21.980Z,95337.11
2019-05-13T17:44:52.604Z,95338.63
2019-05-13T17:47:22.058Z,95338.41
2019-05-13T17:49:52.121Z,95353.37
2019-05-13T17:52:22.117Z,95335.48
2019-05-13T17:54:51.895Z,95317.95
2019-05-13T17:57:21.697Z,95317.54
2019-05-13T17:59:52.091Z,95311.88
2019-05-13T18:02:21.801Z,95320.98
2019-05-13T18:04:52.133Z,95327.73
2019-05-13T18:07:21.638Z,95336.40
2019-05-13T18:09:52.035Z,95335.41
2019-05-13T18:12:22.400Z,95333.22
2019-05-13T18:14:51.861Z,95341.30
2019-05-13T18:17:21.701Z,95338.31
2019-05-13T18:19:51.520Z,95334.39
2019-05-13T18:22:20.966Z,95331.67
2019-05-13T18:24:51.920Z,95327.36
2019-05-13T18:27:23.189Z,95327.81
2019-05-13T18:29:52.703Z,95329.32
2019-05-13T18:32:22.051Z,95322.67
2019-05-13T18:34:51.370Z,95321.39
2019-05-13T18:37:22.128Z,95335.92
2019-05-13T18:39:52.174Z,95331.20
2019-05-13T18:42:22.354Z,95333.50
2019-05-13T18:44:51.892Z,95342.83
2019-05-13T18:47:22.105Z,95340.30
2019-05-13T18:49:51.723Z,95340.52
2019-05-13T18:52:22.317Z,95333.50
2019-05-13T18:54:51.902Z,95338.89
2019-05-13T18:57:21.405Z,95338.09
2019-05-13T18:59:52.011Z,95336.17
2019-05-13T19:02:22.533Z,95339.61
2019-05-13T19:04:52.319Z,95342.47
2019-05-13T19:07:22.023Z,95342.28
2019-05-13T19:09:52.361Z,95348.97
2019-05-13T19:12:22.036Z,95338.34
2019-05-13T19:14:51.772Z,95349.11
2019-05-13T19:17:22.347Z,95346.17
2019-05-13T19:19:51.956Z,95353.19
2019-05-13T19:22:21.510Z,95362.80
2019-05-13T19:24:51.784Z,95339.98
2019-05-13T19:27:21.666Z,95339.33
2019-05-13T19:29:52.457Z,95350.34
2019-05-13T19:32:22.122Z,95335.97
2019-05-13T19:34:51.795Z,95347.21
2019-05-13T19:37:22.391Z,95355.64
2019-05-13T19:39:52.499Z,95349.08
2019-05-13T19:42:22.444Z,95348.56
2019-05-13T19:44:51.840Z,95351.92
2019-05-13T19:47:21.176Z,95368.66
2019-05-13T19:49:52.307Z,95350.76
2019-05-13T19:52:21.795Z,95349.20
2019-05-13T19:54:51.451Z,95347.62
2019-05-13T19:57:21.289Z,95344.53
2019-05-13T19:59:50.799Z,95349.20
2019-05-13T20:02:22.189Z,95341.81
2019-05-13T20:04:52.357Z,95347.98
2019-05-13T20:07:22.418Z,95335.31
2019-05-13T20:09:51.983Z,95345.00
2019-05-13T20:12:21.345Z,95354.05
2019-05-13T20:14:51.736Z,95348.62
2019-05-13T20:17:21.195Z,95348.05
2019-05-13T20:19:58.022Z,95349.56
2019-05-13T20:22:27.338Z,95340.78
2019-05-13T20:24:56.821Z,95362.67
2019-05-13T20:27:26.131Z,95368.67
2019-05-13T20:29:55.637Z,95361.00
2019-05-13T20:32:24.986Z,95358.80
2019-05-13T20:34:54.325Z,95349.23
2019-05-13T20:37:23.680Z,95349.00
2019-05-13T20:39:53.044Z,95350.50
2019-05-13T20:42:23.398Z,95136.67
2019-05-13T20:44:52.927Z,95338.93
2019-05-13T20:47:22.242Z,95348.58
2019-05-13T20:50:01.475Z,95361.94
2019-05-13T20:52:22.750Z,95344.08
2019-05-13T20:54:52.150Z,95328.06
2019-05-13T20:57:22.334Z,95347.36
2019-05-13T20:59:52.574Z,95338.14
2019-05-13T21:02:22.306Z,95346.98
2019-05-13T21:04:51.744Z,95332.42
2019-05-13T21:07:21.692Z,95323.20
2019-05-13T21:09:51.366Z,95312.61
2019-05-13T21:12:22.073Z,95307.46
2019-05-13T21:14:51.635Z,95309.55
2019-05-13T21:17:21.387Z,95312.31
2019-05-13T21:19:52.799Z,95296.91
2019-05-13T21:22:21.959Z,95279.54
2019-05-13T21:24:51.594Z,95274.81
2019-05-13T21:27:20.918Z,95269.30
2019-05-13T21:29:51.948Z,95250.44
2019-05-13T21:32:21.547Z,95249.70
2019-05-13T21:34:51.630Z,95260.26
2019-05-13T21:37:22.102Z,95274.89
2019-05-13T21:39:51.843Z,95256.41
2019-05-13T21:42:21.743Z,95249.39
2019-05-13T21:44:51.426Z,95254.89
2019-05-13T21:47:21.989Z,95266.14
2019-05-13T21:49:51.715Z,95273.42
2019-05-13T21:52:23.774Z,95283.61
2019-05-13T21:54:52.222Z,95280.03
2019-05-13T21:57:21.622Z,95292.01
2019-05-13T21:59:51.588Z,95277.59
2019-05-13T22:02:21.238Z,95279.77
2019-05-13T22:04:52.144Z,95272.14
2019-05-13T22:07:22.261Z,95277.13
2019-05-13T22:09:51.843Z,95275.67
2019-05-13T22:12:21.778Z,95276.16
2019-05-13T22:14:51.727Z,95296.31
2019-05-13T22:17:21.265Z,95276.58
2019-05-13T22:19:51.276Z,95295.84
2019-05-13T22:22:22.117Z,95300.03
2019-05-13T22:24:51.517Z,95274.85
2019-05-13T22:27:21.821Z,95271.48
2019-05-13T22:29:51.648Z,95307.26
2019-05-13T22:32:21.999Z,95275.47
2019-05-13T22:34:51.471Z,95267.67
2019-05-13T22:37:23.013Z,95277.71
2019-05-13T22:39:51.977Z,95268.95
2019-05-13T22:42:21.638Z,95261.95
2019-05-13T22:44:52.239Z,95277.08
2019-05-13T22:47:22.162Z,95278.76
2019-05-13T22:49:51.679Z,95287.34
2019-05-13T22:52:21.868Z,95302.81
2019-05-13T22:54:51.819Z,95298.87
2019-05-13T22:57:21.948Z,95305.52
2019-05-13T22:59:52.072Z,95300.78
2019-05-13T23:02:22.066Z,95292.43
2019-05-13T23:04:51.542Z,95299.00
2019-05-13T23:07:22.338Z,95302.44
2019-05-13T23:09:52.054Z,95303.56
2019-05-13T23:12:24.503Z,95294.08
2019-05-13T23:14:53.978Z,95290.27
2019-05-13T23:17:23.378Z,95311.70
2019-05-13T23:19:52.781Z,95314.30
2019-05-13T23:22:22.132Z,95318.72
2019-05-13T23:24:51.545Z,95318.84
2019-05-13T23:27:21.984Z,95320.08
2019-05-13T23:29:51.769Z,95313.55
2019-05-13T23:32:21.343Z,95306.22
2019-05-13T23:34:51.326Z,95294.16
2019-05-13T23:37:21.831Z,95297.86
2019-05-13T23:39:51.993Z,95290.30
2019-05-13T23:42:21.502Z,95298.97
2019-05-13T23:44:51.741Z,95291.64
2019-05-13T23:47:21.857Z,95284.31
2019-05-13T23:49:51.460Z,95291.84
2019-05-13T23:52:21.944Z,95296.50
2019-05-13T23:54:51.776Z,95299.84
2019-05-13T23:57:22.220Z,95296.59
2019-05-13T23:59:51.745Z,95292.77
